createdAt,value
2018-07-08T00:01:26.876Z,20.40
2018-07-08T00:03:54.580Z,20.40
2018-07-08T00:06:21.480Z,20.40
2018-07-08T00:08:48.413Z,20.40
2018-07-08T00:11:15.306Z,20.30
2018-07-08T00:13:42.169Z,20.30
2018-07-08T00:16:09.164Z,20.20
2018-07-08T00:18:36.135Z,20.20
2018-07-08T00:21:03.108Z,20.20
2018-07-08T00:23:29.987Z,20.20
2018-07-08T00:25:56.958Z,20.10
2018-07-08T00:28:24.587Z,20.00
2018-07-08T00:30:51.562Z,20.00
2018-07-08T00:33:18.469Z,19.90
2018-07-08T00:35:45.397Z,19.90
2018-07-08T00:38:12.282Z,19.80
2018-07-08T00:40:39.271Z,19.80
2018-07-08T00:43:06.166Z,19.80
2018-07-08T00:45:33.157Z,19.70
2018-07-08T00:48:00.051Z,19.60
2018-07-08T00:50:27.149Z,19.60
2018-07-08T00:53:02.297Z,19.60
2018-07-08T00:55:43.206Z,19.50
2018-07-08T00:58:20.587Z,19.50
2018-07-08T01:00:57.137Z,19.30
2018-07-08T01:03:32.322Z,19.30
2018-07-08T01:06:12.275Z,19.30
2018-07-08T01:08:50.542Z,19.30
2018-07-08T01:11:21.839Z,19.30
2018-07-08T01:13:59.230Z,19.30
2018-07-08T01:16:26.677Z,19.20
2018-07-08T01:19:03.512Z,19.20
2018-07-08T01:21:31.047Z,19.10
2018-07-08T01:24:07.758Z,19.20
2018-07-08T01:26:45.558Z,19.20
2018-07-08T01:29:26.103Z,19.30
2018-07-08T01:31:53.977Z,19.30
2018-07-08T01:34:21.733Z,19.30
2018-07-08T01:36:49.457Z,19.20
2018-07-08T01:39:16.384Z,19.20
2018-07-08T01:41:43.293Z,19.30
2018-07-08T01:44:10.168Z,19.40
2018-07-08T01:46:37.129Z,19.40
2018-07-08T01:49:04.023Z,19.40
2018-07-08T01:51:31.681Z,19.50
2018-07-08T01:53:59.383Z,19.60
2018-07-08T01:56:26.324Z,19.50
2018-07-08T01:58:53.205Z,19.60
2018-07-08T02:01:20.125Z,19.50
2018-07-08T02:03:46.993Z,19.50
2018-07-08T02:06:14.024Z,19.50
2018-07-08T02:08:40.930Z,19.50
2018-07-08T02:11:07.886Z,19.50
2018-07-08T02:13:34.810Z,19.40
2018-07-08T02:16:02.549Z,19.40
2018-07-08T02:18:29.520Z,19.30
2018-07-08T02:20:57.180Z,19.30
2018-07-08T02:23:24.776Z,19.20
2018-07-08T02:25:51.715Z,19.20
2018-07-08T02:28:18.682Z,19.20
2018-07-08T02:30:45.592Z,19.20
2018-07-08T02:33:12.548Z,19.10
2018-07-08T02:35:39.511Z,19.10
2018-07-08T02:38:06.469Z,19.00
2018-07-08T02:40:33.445Z,19.00
2018-07-08T02:43:00.456Z,19.00
2018-07-08T02:45:27.383Z,18.80
2018-07-08T02:47:55.079Z,18.80
2018-07-08T02:50:22.018Z,18.80
2018-07-08T02:52:49.069Z,18.70
2018-07-08T02:55:15.910Z,18.70
2018-07-08T02:57:42.819Z,18.60
2018-07-08T03:00:09.681Z,18.70
2018-07-08T03:02:36.586Z,18.70
2018-07-08T03:05:03.525Z,18.60
2018-07-08T03:07:30.428Z,18.60
2018-07-08T03:09:57.278Z,18.60
2018-07-08T03:12:24.196Z,18.60
2018-07-08T03:14:51.064Z,18.60
2018-07-08T03:17:17.992Z,18.60
2018-07-08T03:19:44.891Z,18.60
2018-07-08T03:22:11.812Z,18.50
2018-07-08T03:24:38.670Z,18.50
2018-07-08T03:27:05.620Z,18.50
2018-07-08T03:29:32.529Z,18.40
2018-07-08T03:31:59.530Z,18.40
2018-07-08T03:34:27.173Z,18.40
2018-07-08T03:36:54.077Z,18.30
2018-07-08T03:39:20.946Z,18.30
2018-07-08T03:41:47.798Z,18.40
2018-07-08T03:44:14.733Z,18.50
2018-07-08T03:46:41.575Z,18.40
2018-07-08T03:49:08.862Z,18.50
2018-07-08T03:51:35.736Z,18.50
2018-07-08T03:54:03.509Z,18.50
2018-07-08T03:56:30.376Z,18.50
2018-07-08T03:58:57.308Z,18.40
2018-07-08T04:01:24.214Z,18.40
2018-07-08T04:03:51.126Z,18.40
2018-07-08T04:06:17.983Z,18.50
2018-07-08T04:08:44.899Z,18.30
2018-07-08T04:11:11.822Z,18.30
2018-07-08T04:13:38.791Z,18.30
2018-07-08T04:16:05.680Z,18.30
2018-07-08T04:18:32.636Z,18.30
2018-07-08T04:20:59.493Z,18.40
2018-07-08T04:23:27.145Z,18.40
2018-07-08T04:25:55.581Z,18.40
2018-07-08T04:28:30.755Z,18.40
2018-07-08T04:30:58.067Z,18.60
2018-07-08T04:33:24.992Z,18.70
2018-07-08T04:35:51.890Z,18.80
2018-07-08T04:38:18.797Z,19.10
2018-07-08T04:40:45.680Z,20.90
2018-07-08T04:43:12.585Z,21.10
2018-07-08T04:45:39.435Z,21.10
2018-07-08T04:49:36.176Z,21.90
2018-07-08T04:52:03.144Z,24.00
2018-07-08T04:54:30.049Z,25.20
2018-07-08T04:56:56.916Z,24.50
2018-07-08T04:59:23.833Z,25.20
2018-07-08T05:01:51.421Z,28.20
2018-07-08T05:04:18.343Z,28.10
2018-07-08T05:06:45.997Z,29.80
2018-07-08T05:09:13.676Z,30.50
2018-07-08T05:11:40.544Z,30.50
2018-07-08T05:14:07.464Z,30.60
2018-07-08T05:16:35.048Z,33.40
2018-07-08T05:19:02.042Z,33.40
2018-07-08T05:21:28.885Z,34.70
2018-07-08T05:23:55.810Z,34.60
2018-07-08T05:26:22.648Z,34.70
2018-07-08T05:28:49.652Z,35.60
2018-07-08T05:31:17.245Z,33.60
2018-07-08T05:33:44.157Z,33.60
2018-07-08T05:36:11.795Z,28.90
2018-07-08T05:38:38.741Z,28.70
2018-07-08T05:41:05.637Z,28.50
2018-07-08T05:43:32.567Z,28.30
2018-07-08T05:45:59.418Z,27.10
2018-07-08T05:48:26.380Z,25.90
2018-07-08T05:50:53.231Z,24.60
2018-07-08T05:53:20.131Z,23.90
2018-07-08T05:55:47.717Z,23.20
2018-07-08T05:58:14.696Z,23.10
2018-07-08T06:00:41.548Z,24.80
2018-07-08T06:03:08.397Z,26.40
2018-07-08T06:05:35.317Z,25.90
2018-07-08T06:08:02.190Z,26.30
2018-07-08T06:10:29.229Z,26.60
2018-07-08T06:12:56.076Z,25.20
2018-07-08T06:15:23.039Z,24.40
2018-07-08T06:17:50.648Z,23.80
2018-07-08T06:20:17.576Z,23.70
2018-07-08T06:22:44.460Z,23.10
2018-07-08T06:25:11.393Z,22.80
2018-07-08T06:27:38.286Z,22.60
2018-07-08T06:30:05.301Z,22.40
2018-07-08T06:32:32.176Z,22.40
2018-07-08T06:34:59.840Z,22.50
2018-07-08T06:37:27.451Z,22.50
2018-07-08T06:39:54.354Z,22.50
2018-07-08T06:42:21.952Z,22.50
2018-07-08T06:44:48.873Z,22.50
2018-07-08T06:47:16.480Z,22.20
2018-07-08T06:49:43.404Z,22.20
2018-07-08T06:52:10.248Z,22.40
2018-07-08T06:54:37.165Z,22.40
2018-07-08T06:57:04.841Z,22.50
2018-07-08T06:59:31.847Z,22.50
2018-07-08T07:01:58.707Z,22.50
2018-07-08T07:04:25.720Z,22.50
2018-07-08T07:06:52.590Z,22.50
2018-07-08T07:09:19.505Z,22.50
2018-07-08T07:11:46.352Z,22.30
2018-07-08T07:14:13.282Z,22.30
2018-07-08T07:16:40.200Z,22.50
2018-07-08T07:19:07.802Z,22.10
2018-07-08T07:21:34.760Z,22.10
2018-07-08T07:24:01.652Z,22.20
2018-07-08T07:26:29.306Z,22.70
2018-07-08T07:28:56.931Z,22.60
2018-07-08T07:31:23.852Z,22.60
2018-07-08T07:33:50.767Z,22.60
2018-07-08T07:36:18.410Z,22.50
2018-07-08T07:38:45.316Z,22.50
2018-07-08T07:41:12.233Z,22.60
2018-07-08T07:43:39.092Z,22.90
2018-07-08T07:46:06.053Z,22.80
2018-07-08T07:48:32.896Z,23.00
2018-07-08T07:50:59.824Z,23.00
2018-07-08T07:53:26.674Z,23.70
2018-07-08T07:55:53.596Z,25.60
2018-07-08T07:58:21.272Z,26.80
2018-07-08T08:00:48.200Z,26.70
2018-07-08T08:03:15.826Z,24.40
2018-07-08T08:05:42.734Z,24.40
2018-07-08T08:08:09.619Z,25.40
2018-07-08T08:10:36.549Z,26.70
2018-07-08T08:13:03.443Z,26.10
2018-07-08T08:15:30.393Z,26.20
2018-07-08T08:17:57.274Z,26.20
2018-07-08T08:20:24.217Z,25.90
2018-07-08T08:22:51.073Z,26.40
2018-07-08T08:25:18.014Z,25.80
2018-07-08T08:27:44.904Z,26.80
2018-07-08T08:30:12.626Z,30.50
2018-07-08T08:32:39.552Z,30.40
2018-07-08T08:35:06.425Z,30.40
2018-07-08T08:37:33.402Z,30.30
2018-07-08T08:40:00.324Z,30.20
2018-07-08T08:42:27.318Z,30.30
2018-07-08T08:44:54.200Z,31.50
2018-07-08T08:47:21.194Z,32.00
2018-07-08T08:49:48.084Z,33.10
2018-07-08T08:52:15.031Z,31.40
2018-07-08T08:54:41.905Z,32.20
2018-07-08T08:57:08.812Z,33.30
2018-07-08T08:59:35.748Z,34.20
2018-07-08T09:02:02.733Z,36.20
2018-07-08T09:04:29.595Z,36.20
2018-07-08T09:06:56.530Z,33.60
2018-07-08T09:09:23.437Z,33.70
2018-07-08T09:11:50.357Z,32.10
2018-07-08T09:14:17.980Z,31.80
2018-07-08T09:16:44.921Z,31.80
2018-07-08T09:19:11.812Z,32.00
2018-07-08T09:21:39.483Z,31.20
2018-07-08T09:24:06.496Z,31.10
2018-07-08T09:26:33.433Z,31.50
2018-07-08T09:29:00.299Z,31.80
2018-07-08T09:31:27.222Z,31.70
2018-07-08T09:33:54.102Z,32.20
2018-07-08T09:36:21.012Z,32.40
2018-07-08T09:38:47.952Z,30.80
2018-07-08T09:41:14.838Z,31.20
2018-07-08T09:43:42.424Z,32.10
2018-07-08T09:46:09.337Z,32.10
2018-07-08T09:48:36.946Z,31.20
2018-07-08T09:51:03.869Z,31.20
2018-07-08T09:53:30.725Z,31.80
2018-07-08T09:55:57.597Z,31.60
2018-07-08T09:58:24.592Z,32.00
2018-07-08T10:00:52.179Z,32.00
2018-07-08T10:03:19.128Z,32.10
2018-07-08T10:05:46.017Z,31.90
2018-07-08T10:08:12.996Z,31.70
2018-07-08T10:10:39.857Z,31.70
2018-07-08T10:13:06.817Z,31.60
2018-07-08T10:15:33.693Z,31.40
2018-07-08T10:18:00.626Z,31.70
2018-07-08T10:20:27.577Z,31.80
2018-07-08T10:22:54.492Z,31.60
2018-07-08T10:25:21.388Z,31.80
2018-07-08T10:27:48.870Z,32.00
2018-07-08T10:30:29.422Z,31.80
2018-07-08T10:33:11.160Z,31.60
2018-07-08T10:35:57.573Z,31.60
2018-07-08T10:38:39.932Z,31.70
2018-07-08T10:41:20.802Z,31.20
2018-07-08T10:43:48.668Z,31.00
2018-07-08T10:46:16.280Z,29.30
2018-07-08T10:48:43.208Z,29.30
2018-07-08T10:51:10.111Z,30.00
2018-07-08T10:53:37.049Z,30.10
2018-07-08T10:56:04.025Z,29.90
2018-07-08T10:58:31.756Z,29.80
2018-07-08T11:00:58.693Z,29.70
2018-07-08T11:03:25.663Z,29.30
2018-07-08T11:05:53.362Z,30.10
2018-07-08T11:08:20.320Z,30.10
2018-07-08T11:10:51.342Z,30.10
2018-07-08T11:13:20.611Z,30.20
2018-07-08T11:15:47.493Z,30.40
2018-07-08T11:18:15.416Z,30.70
2018-07-08T11:20:42.334Z,30.80
2018-07-08T11:23:13.057Z,30.70
2018-07-08T11:25:41.996Z,30.60
2018-07-08T11:28:08.997Z,30.30
2018-07-08T11:30:35.862Z,30.70
2018-07-08T11:33:02.832Z,30.30
2018-07-08T11:35:29.737Z,30.20
2018-07-08T11:37:56.651Z,30.60
2018-07-08T11:40:37.490Z,30.40
2018-07-08T11:43:09.900Z,30.40
2018-07-08T11:45:37.486Z,30.10
2018-07-08T11:48:16.836Z,30.10
2018-07-08T11:50:48.124Z,30.00
2018-07-08T11:53:21.030Z,30.40
2018-07-08T11:55:48.612Z,30.80
2018-07-08T11:58:15.584Z,30.80
2018-07-08T12:00:42.501Z,30.50
2018-07-08T12:03:09.424Z,30.50
2018-07-08T12:05:37.118Z,30.60
2018-07-08T12:08:07.079Z,30.60
2018-07-08T12:10:48.689Z,30.80
2018-07-08T12:13:31.507Z,30.60
2018-07-08T12:16:12.428Z,30.60
2018-07-08T12:18:54.240Z,30.90
2018-07-08T12:21:34.863Z,30.30
2018-07-08T12:24:03.532Z,30.30
2018-07-08T12:26:31.152Z,30.40
2018-07-08T12:28:58.068Z,30.40
2018-07-08T12:31:24.924Z,30.30
2018-07-08T12:33:51.839Z,30.00
2018-07-08T12:36:19.462Z,30.10
2018-07-08T12:38:46.382Z,30.10
2018-07-08T12:41:13.249Z,30.00
2018-07-08T12:43:40.234Z,29.10
2018-07-08T12:46:07.857Z,29.90
2018-07-08T12:48:34.858Z,29.90
2018-07-08T12:51:01.748Z,30.00
2018-07-08T12:53:28.723Z,30.00
2018-07-08T12:55:55.630Z,30.00
2018-07-08T12:58:22.653Z,30.50
2018-07-08T13:00:49.554Z,30.40
2018-07-08T13:03:16.425Z,30.60
2018-07-08T13:05:43.349Z,30.60
2018-07-08T13:08:10.291Z,30.80
2018-07-08T13:10:38.032Z,30.30
2018-07-08T13:13:04.942Z,30.30
2018-07-08T13:15:31.866Z,30.70
2018-07-08T13:17:58.763Z,30.70
2018-07-08T13:20:25.721Z,30.90
2018-07-08T13:22:52.577Z,30.60
2018-07-08T13:25:19.501Z,30.90
2018-07-08T13:27:46.397Z,31.00
2018-07-08T13:30:14.060Z,31.10
2018-07-08T13:32:40.965Z,31.10
2018-07-08T13:35:07.991Z,30.80
2018-07-08T13:37:34.849Z,30.30
2018-07-08T13:40:01.774Z,29.70
2018-07-08T13:42:28.636Z,29.50
2018-07-08T13:44:55.564Z,29.90
2018-07-08T13:47:22.464Z,29.10
2018-07-08T13:49:50.133Z,30.10
2018-07-08T13:52:17.009Z,30.00
2018-07-08T13:54:43.938Z,30.50
2018-07-08T13:57:10.796Z,30.70
2018-07-08T13:59:37.766Z,30.80
2018-07-08T14:02:04.664Z,29.80
2018-07-08T14:04:32.352Z,30.20
2018-07-08T14:06:59.237Z,30.20
2018-07-08T14:09:26.229Z,30.50
2018-07-08T14:11:53.141Z,30.70
2018-07-08T14:14:20.108Z,30.80
2018-07-08T14:16:46.985Z,30.80
2018-07-08T14:19:13.849Z,30.00
2018-07-08T14:21:40.801Z,29.80
2018-07-08T14:24:07.722Z,30.10
2018-07-08T14:26:34.701Z,30.40
2018-07-08T14:29:01.581Z,30.80
2018-07-08T14:31:29.234Z,30.40
2018-07-08T14:33:56.844Z,30.60
2018-07-08T14:36:23.752Z,30.60
2018-07-08T14:38:50.620Z,30.00
2018-07-08T14:41:17.533Z,30.00
2018-07-08T14:43:45.136Z,30.10
2018-07-08T14:46:12.086Z,30.10
2018-07-08T14:48:38.957Z,29.70
2018-07-08T14:51:05.946Z,30.10
2018-07-08T14:53:32.812Z,30.50
2018-07-08T14:55:59.741Z,30.30
2018-07-08T14:58:26.690Z,30.30
2018-07-08T15:00:53.785Z,30.00
2018-07-08T15:03:20.657Z,30.20
2018-07-08T15:05:47.624Z,30.10
2018-07-08T15:08:14.602Z,30.10
2018-07-08T15:10:41.505Z,30.00
2018-07-08T15:13:09.108Z,30.10
2018-07-08T15:15:36.088Z,30.10
2018-07-08T15:18:03.810Z,30.10
2018-07-08T15:20:30.731Z,30.10
2018-07-08T15:22:58.332Z,30.20
2018-07-08T15:25:25.256Z,30.20
2018-07-08T15:27:52.122Z,30.00
2018-07-08T15:30:19.067Z,30.00
2018-07-08T15:32:46.008Z,29.90
2018-07-08T15:35:12.965Z,29.60
2018-07-08T15:37:39.860Z,29.90
2018-07-08T15:40:07.505Z,29.90
2018-07-08T15:42:34.498Z,29.80
2018-07-08T15:45:01.444Z,29.90
2018-07-08T15:47:28.420Z,30.00
2018-07-08T15:49:55.368Z,30.10
2018-07-08T15:52:22.380Z,30.00
2018-07-08T15:54:49.237Z,30.00
2018-07-08T15:57:16.293Z,30.10
2018-07-08T15:59:43.317Z,29.90
2018-07-08T16:02:10.301Z,29.70
2018-07-08T16:04:37.203Z,30.00
2018-07-08T16:07:14.847Z,29.90
2018-07-08T16:09:51.500Z,30.10
2018-07-08T16:12:18.460Z,29.70
2018-07-08T16:14:45.365Z,29.70
2018-07-08T16:17:15.570Z,29.90
2018-07-08T16:19:47.386Z,29.50
2018-07-08T16:22:14.344Z,29.50
2018-07-08T16:24:41.317Z,29.10
2018-07-08T16:27:08.993Z,29.40
2018-07-08T16:29:36.670Z,29.30
2018-07-08T16:32:03.671Z,29.30
2018-07-08T16:34:30.631Z,29.40
2018-07-08T16:36:57.557Z,29.30
2018-07-08T16:39:24.445Z,29.20
2018-07-08T16:41:51.412Z,29.50
2018-07-08T16:44:18.268Z,29.50
2018-07-08T16:46:45.288Z,29.50
2018-07-08T16:49:12.152Z,29.50
2018-07-08T16:51:39.070Z,29.60
2018-07-08T16:54:06.712Z,29.60
2018-07-08T16:56:33.615Z,29.60
2018-07-08T16:59:00.521Z,29.70
2018-07-08T17:01:28.362Z,29.70
2018-07-08T17:03:55.219Z,29.70
2018-07-08T17:06:22.134Z,29.30
2018-07-08T17:08:49.072Z,29.30
2018-07-08T17:11:15.934Z,29.40
2018-07-08T17:13:42.853Z,29.40
2018-07-08T17:16:09.732Z,29.30
2018-07-08T17:18:36.649Z,29.30
2018-07-08T17:21:03.502Z,29.30
2018-07-08T17:23:30.509Z,29.40
2018-07-08T17:25:58.121Z,29.50
2018-07-08T17:28:25.116Z,29.50
2018-07-08T17:30:51.989Z,29.30
2018-07-08T17:33:19.061Z,29.30
2018-07-08T17:35:45.887Z,29.30
2018-07-08T17:38:12.891Z,29.20
2018-07-08T17:40:40.513Z,28.80
2018-07-08T17:43:07.429Z,28.80
2018-07-08T17:45:34.312Z,29.00
2018-07-08T17:48:01.300Z,29.00
2018-07-08T17:50:28.185Z,28.80
2018-07-08T17:52:55.214Z,28.70
2018-07-08T17:55:22.120Z,28.60
2018-07-08T17:57:49.882Z,28.40
2018-07-08T18:00:17.562Z,28.60
2018-07-08T18:02:45.292Z,28.50
2018-07-08T18:05:12.141Z,28.50
2018-07-08T18:07:39.041Z,28.60
2018-07-08T18:10:05.905Z,28.60
2018-07-08T18:12:32.866Z,28.40
2018-07-08T18:14:59.740Z,28.50
2018-07-08T18:17:27.463Z,28.00
2018-07-08T18:19:54.421Z,28.00
2018-07-08T18:22:21.348Z,27.80
2018-07-08T18:24:48.268Z,27.90
2018-07-08T18:27:15.253Z,28.00
2018-07-08T18:29:42.115Z,28.10
2018-07-08T18:32:08.976Z,28.10
2018-07-08T18:34:35.892Z,27.90
2018-07-08T18:37:02.802Z,28.00
2018-07-08T18:39:29.752Z,27.90
2018-07-08T18:41:56.659Z,27.90
2018-07-08T18:44:24.408Z,27.70
2018-07-08T18:46:51.272Z,27.70
2018-07-08T18:49:19.628Z,27.60
2018-07-08T18:51:46.500Z,27.60
2018-07-08T18:54:14.198Z,27.50
2018-07-08T18:56:41.152Z,27.50
2018-07-08T18:59:08.124Z,27.40
2018-07-08T19:01:35.080Z,27.30
2018-07-08T19:04:02.004Z,27.30
2018-07-08T19:06:28.888Z,27.30
2018-07-08T19:08:55.815Z,27.20
2018-07-08T19:11:22.683Z,27.10
2018-07-08T19:13:49.687Z,27.10
2018-07-08T19:16:16.674Z,27.00
2018-07-08T19:18:44.355Z,26.90
2018-07-08T19:21:11.217Z,26.90
2018-07-08T19:23:38.218Z,26.80
2018-07-08T19:26:05.856Z,26.50
2018-07-08T19:28:32.837Z,26.50
2018-07-08T19:31:00.458Z,26.50
2018-07-08T19:33:27.395Z,26.50
2018-07-08T19:35:54.321Z,26.50
2018-07-08T19:38:21.217Z,26.40
2018-07-08T19:40:48.132Z,26.30
2018-07-08T19:43:15.096Z,26.30
2018-07-08T19:45:42.005Z,26.30
2018-07-08T19:48:08.875Z,26.20
2018-07-08T19:50:35.814Z,26.10
2018-07-08T19:53:02.712Z,26.00
2018-07-08T19:55:30.419Z,25.80
2018-07-08T19:57:57.306Z,25.80
2018-07-08T20:00:24.316Z,25.70
2018-07-08T20:02:51.173Z,25.80
2018-07-08T20:05:18.111Z,25.80
2018-07-08T20:07:45.128Z,25.70
2018-07-08T20:10:12.767Z,25.50
2018-07-08T20:12:40.425Z,25.50
2018-07-08T20:15:08.105Z,25.50
2018-07-08T20:17:35.038Z,25.40
2018-07-08T20:20:01.977Z,25.40
2018-07-08T20:22:29.630Z,25.20
2018-07-08T20:24:56.561Z,25.20
2018-07-08T20:27:23.533Z,25.00
2018-07-08T20:29:51.284Z,24.80
2018-07-08T20:32:18.153Z,24.80
2018-07-08T20:34:45.176Z,24.70
2018-07-08T20:37:12.044Z,24.60
2018-07-08T20:39:39.024Z,24.70
2018-07-08T20:42:05.938Z,24.60
2018-07-08T20:44:33.676Z,24.50
2018-07-08T20:47:00.618Z,24.40
2018-07-08T20:49:27.520Z,24.40
2018-07-08T20:51:54.448Z,24.40
2018-07-08T20:54:21.443Z,24.30
2018-07-08T20:56:48.468Z,24.30
2018-07-08T20:59:15.457Z,24.20
2018-07-08T21:01:42.429Z,24.20
2018-07-08T21:04:09.425Z,24.10
2018-07-08T21:06:36.411Z,24.10
2018-07-08T21:09:04.048Z,24.00
2018-07-08T21:11:31.030Z,24.00
2018-07-08T21:13:58.665Z,24.00
2018-07-08T21:16:25.585Z,23.90
2018-07-08T21:18:52.558Z,24.00
2018-07-08T21:21:19.531Z,23.90
2018-07-08T21:23:47.213Z,23.80
2018-07-08T21:26:14.173Z,23.80
2018-07-08T21:28:41.075Z,23.80
2018-07-08T21:31:08.746Z,23.90
2018-07-08T21:33:36.432Z,23.80
2018-07-08T21:36:03.393Z,23.70
2018-07-08T21:38:30.286Z,23.60
2018-07-08T21:40:57.294Z,23.60
2018-07-08T21:43:24.133Z,23.60
2018-07-08T21:45:51.065Z,23.60
2018-07-08T21:48:17.927Z,23.60
2018-07-08T21:50:44.897Z,23.50
2018-07-08T21:53:11.782Z,23.50
2018-07-08T21:55:39.536Z,23.30
2018-07-08T21:58:07.208Z,23.30
2018-07-08T22:00:35.007Z,23.20
2018-07-08T22:03:01.907Z,23.20
2018-07-08T22:05:28.885Z,23.20
2018-07-08T22:07:55.907Z,23.10
2018-07-08T22:10:23.657Z,23.00
2018-07-08T22:12:51.299Z,23.00
2018-07-08T22:15:24.339Z,22.90
2018-07-08T22:17:51.937Z,22.90
2018-07-08T22:20:18.849Z,22.80
2018-07-08T22:22:45.760Z,22.80
2018-07-08T22:25:26.814Z,22.80
2018-07-08T22:28:07.653Z,22.70
2018-07-08T22:30:47.419Z,22.70
2018-07-08T22:33:29.451Z,22.70
2018-07-08T22:36:11.334Z,22.60
2018-07-08T22:38:52.422Z,22.60
2018-07-08T22:41:33.045Z,22.50
2018-07-08T22:44:07.351Z,22.50
2018-07-08T22:46:49.367Z,22.40
2018-07-08T22:49:32.398Z,22.40
2018-07-08T22:52:14.208Z,22.30
2018-07-08T22:54:55.529Z,22.30
2018-07-08T22:57:23.295Z,22.30
2018-07-08T22:59:59.339Z,22.20
2018-07-08T23:02:50.900Z,22.00
2018-07-08T23:05:18.742Z,22.00
2018-07-08T23:07:45.687Z,22.10
2018-07-08T23:10:13.516Z,22.00
2018-07-08T23:12:40.440Z,22.00
2018-07-08T23:15:07.359Z,22.00
2018-07-08T23:17:35.040Z,21.90
2018-07-08T23:20:01.937Z,21.90
2018-07-08T23:22:29.001Z,21.90
2018-07-08T23:24:56.656Z,21.80
2018-07-08T23:27:23.595Z,21.80
2018-07-08T23:29:50.473Z,21.70
2018-07-08T23:32:18.174Z,21.70
2018-07-08T23:34:45.045Z,21.70
2018-07-08T23:37:11.976Z,21.70
2018-07-08T23:39:38.853Z,21.70
2018-07-08T23:42:06.588Z,21.60
2018-07-08T23:44:33.578Z,21.50
2018-07-08T23:47:00.509Z,21.60
2018-07-08T23:49:28.105Z,21.50
2018-07-08T23:51:55.037Z,21.50
2018-07-08T23:54:21.930Z,21.50
2018-07-08T23:56:48.802Z,21.50
2018-07-08T23:59:15.798Z,21.40
